sensor_id;sensor_type;location;lat;lon;timestamp;P1;durP1;ratioP1;P2;durP2;ratioP2
21848;SDS011;11089;49.852;19.700;2023-04-01T00:00:40;2.78;;;1.45;;
21848;SDS011;11089;49.852;19.700;2023-04-01T00:03:41;4.60;;;1.75;;
21848;SDS011;11089;49.852;19.700;2023-04-01T00:06:42;5.65;;;2.60;;
21848;SDS011;11089;49.852;19.700;2023-04-01T00:09:43;4.22;;;2.28;;
21848;SDS011;11089;49.852;19.700;2023-04-01T00:12:44;4.13;;;2.10;;
21848;SDS011;11089;49.852;19.700;2023-04-01T00:15:45;5.07;;;2.10;;
21848;SDS011;11089;49.852;19.700;2023-04-01T00:18:46;5.20;;;1.75;;
21848;SDS011;11089;49.852;19.700;2023-04-01T00:21:48;4.90;;;1.98;;
21848;SDS011;11089;49.852;19.700;2023-04-01T00:24:49;4.22;;;1.80;;
21848;SDS011;11089;49.852;19.700;2023-04-01T00:27:50;3.55;;;1.50;;
21848;SDS011;11089;49.852;19.700;2023-04-01T00:30:51;4.65;;;2.00;;
21848;SDS011;11089;49.852;19.700;2023-04-01T00:33:52;2.53;;;1.50;;
21848;SDS011;11089;49.852;19.700;2023-04-01T00:36:53;2.72;;;1.60;;
21848;SDS011;11089;49.852;19.700;2023-04-01T00:39:54;4.45;;;1.35;;
21848;SDS011;11089;49.852;19.700;2023-04-01T00:42:56;3.22;;;1.58;;
21848;SDS011;11089;49.852;19.700;2023-04-01T00:45:57;2.65;;;1.38;;
21848;SDS011;11089;49.852;19.700;2023-04-01T00:48:58;2.53;;;1.30;;
21848;SDS011;11089;49.852;19.700;2023-04-01T00:52:02;4.20;;;1.33;;
21848;SDS011;11089;49.852;19.700;2023-04-01T00:55:04;3.75;;;1.50;;
21848;SDS011;11089;49.852;19.700;2023-04-01T00:58:08;3.38;;;1.40;;
21848;SDS011;11089;49.852;19.700;2023-04-01T01:01:14;2.80;;;1.48;;
21848;SDS011;11089;49.852;19.700;2023-04-01T01:07:35;2.33;;;1.55;;
21848;SDS011;11089;49.852;19.700;2023-04-01T01:10:50;3.25;;;1.70;;
21848;SDS011;11089;49.852;19.700;2023-04-01T01:20:55;4.90;;;2.75;;
21848;SDS011;11089;49.852;19.700;2023-04-01T01:36:40;3.30;;;1.50;;
21848;SDS011;11089;49.852;19.700;2023-04-01T01:39:46;2.55;;;1.60;;
21848;SDS011;11089;49.852;19.700;2023-04-01T01:42:55;6.22;;;1.50;;
21848;SDS011;11089;49.852;19.700;2023-04-01T01:46:01;2.30;;;1.30;;
21848;SDS011;11089;49.852;19.700;2023-04-01T01:49:06;2.15;;;1.50;;
21848;SDS011;11089;49.852;19.700;2023-04-01T01:52:10;5.78;;;1.90;;
21848;SDS011;11089;49.852;19.700;2023-04-01T01:58:30;2.83;;;1.13;;
21848;SDS011;11089;49.852;19.700;2023-04-01T02:01:41;2.53;;;1.60;;
21848;SDS011;11089;49.852;19.700;2023-04-01T02:04:45;1.88;;;1.38;;
21848;SDS011;11089;49.852;19.700;2023-04-01T02:07:48;3.30;;;1.88;;
21848;SDS011;11089;49.852;19.700;2023-04-01T02:11:03;4.18;;;2.08;;
21848;SDS011;11089;49.852;19.700;2023-04-01T02:14:11;4.80;;;2.10;;
21848;SDS011;11089;49.852;19.700;2023-04-01T02:17:18;2.95;;;1.65;;
21848;SDS011;11089;49.852;19.700;2023-04-01T02:20:21;2.28;;;1.50;;
21848;SDS011;11089;49.852;19.700;2023-04-01T02:23:23;3.08;;;1.50;;
21848;SDS011;11089;49.852;19.700;2023-04-01T02:26:24;3.20;;;1.67;;
21848;SDS011;11089;49.852;19.700;2023-04-01T02:29:26;4.00;;;1.73;;
21848;SDS011;11089;49.852;19.700;2023-04-01T02:32:28;5.95;;;1.88;;
21848;SDS011;11089;49.852;19.700;2023-04-01T02:35:32;3.35;;;1.50;;
21848;SDS011;11089;49.852;19.700;2023-04-01T02:38:36;2.22;;;1.73;;
21848;SDS011;11089;49.852;19.700;2023-04-01T02:41:41;1.38;;;1.27;;
21848;SDS011;11089;49.852;19.700;2023-04-01T02:44:43;2.30;;;1.48;;
21848;SDS011;11089;49.852;19.700;2023-04-01T02:47:44;2.45;;;1.48;;
21848;SDS011;11089;49.852;19.700;2023-04-01T02:50:45;2.47;;;1.55;;
21848;SDS011;11089;49.852;19.700;2023-04-01T02:53:46;3.17;;;1.70;;
21848;SDS011;11089;49.852;19.700;2023-04-01T02:56:47;2.05;;;1.65;;
21848;SDS011;11089;49.852;19.700;2023-04-01T02:59:48;3.25;;;1.55;;
21848;SDS011;11089;49.852;19.700;2023-04-01T03:02:49;3.00;;;1.80;;
21848;SDS011;11089;49.852;19.700;2023-04-01T03:05:50;5.03;;;1.90;;
21848;SDS011;11089;49.852;19.700;2023-04-01T03:08:51;2.38;;;1.65;;
21848;SDS011;11089;49.852;19.700;2023-04-01T03:11:52;2.50;;;1.80;;
21848;SDS011;11089;49.852;19.700;2023-04-01T03:14:53;4.25;;;2.08;;
21848;SDS011;11089;49.852;19.700;2023-04-01T03:17:54;3.67;;;1.67;;
21848;SDS011;11089;49.852;19.700;2023-04-01T03:20:55;2.13;;;1.70;;
21848;SDS011;11089;49.852;19.700;2023-04-01T03:23:56;3.03;;;1.77;;
21848;SDS011;11089;49.852;19.700;2023-04-01T03:26:57;2.20;;;1.90;;
21848;SDS011;11089;49.852;19.700;2023-04-01T03:29:58;4.25;;;1.50;;
21848;SDS011;11089;49.852;19.700;2023-04-01T03:32:59;2.88;;;1.67;;
21848;SDS011;11089;49.852;19.700;2023-04-01T03:36:00;3.80;;;1.88;;
21848;SDS011;11089;49.852;19.700;2023-04-01T03:39:02;2.78;;;1.90;;
21848;SDS011;11089;49.852;19.700;2023-04-01T03:42:03;3.08;;;1.98;;
21848;SDS011;11089;49.852;19.700;2023-04-01T03:45:06;3.08;;;1.60;;
21848;SDS011;11089;49.852;19.700;2023-04-01T03:48:07;2.83;;;1.70;;
21848;SDS011;11089;49.852;19.700;2023-04-01T03:51:08;4.15;;;1.80;;
21848;SDS011;11089;49.852;19.700;2023-04-01T03:54:09;2.40;;;1.48;;
21848;SDS011;11089;49.852;19.700;2023-04-01T03:57:11;2.63;;;1.60;;
21848;SDS011;11089;49.852;19.700;2023-04-01T04:00:12;5.53;;;2.28;;
21848;SDS011;11089;49.852;19.700;2023-04-01T04:03:13;4.13;;;1.80;;
21848;SDS011;11089;49.852;19.700;2023-04-01T04:06:14;4.95;;;1.95;;
21848;SDS011;11089;49.852;19.700;2023-04-01T04:09:15;2.70;;;1.80;;
21848;SDS011;11089;49.852;19.700;2023-04-01T04:12:16;3.20;;;2.03;;
21848;SDS011;11089;49.852;19.700;2023-04-01T04:15:17;3.35;;;1.90;;
21848;SDS011;11089;49.852;19.700;2023-04-01T04:18:18;2.92;;;2.00;;
21848;SDS011;11089;49.852;19.700;2023-04-01T04:21:19;4.88;;;2.05;;
21848;SDS011;11089;49.852;19.700;2023-04-01T04:24:20;4.75;;;2.40;;
21848;SDS011;11089;49.852;19.700;2023-04-01T04:27:21;4.82;;;2.35;;
21848;SDS011;11089;49.852;19.700;2023-04-01T04:30:22;3.35;;;2.05;;
21848;SDS011;11089;49.852;19.700;2023-04-01T04:33:23;7.72;;;2.83;;
21848;SDS011;11089;49.852;19.700;2023-04-01T04:36:25;6.45;;;2.67;;
21848;SDS011;11089;49.852;19.700;2023-04-01T04:39:26;3.90;;;1.98;;
21848;SDS011;11089;49.852;19.700;2023-04-01T04:42:27;5.43;;;2.15;;
21848;SDS011;11089;49.852;19.700;2023-04-01T04:45:27;7.63;;;2.50;;
21848;SDS011;11089;49.852;19.700;2023-04-01T04:48:28;4.95;;;2.00;;
21848;SDS011;11089;49.852;19.700;2023-04-01T04:51:29;4.90;;;1.73;;
21848;SDS011;11089;49.852;19.700;2023-04-01T04:54:30;4.13;;;2.33;;
21848;SDS011;11089;49.852;19.700;2023-04-01T04:57:31;3.80;;;1.90;;
21848;SDS011;11089;49.852;19.700;2023-04-01T05:00:32;3.95;;;1.60;;
21848;SDS011;11089;49.852;19.700;2023-04-01T05:03:33;4.82;;;2.28;;
21848;SDS011;11089;49.852;19.700;2023-04-01T05:06:34;10.88;;;2.08;;
21848;SDS011;11089;49.852;19.700;2023-04-01T05:09:35;3.50;;;1.70;;
21848;SDS011;11089;49.852;19.700;2023-04-01T05:12:36;5.88;;;2.08;;
21848;SDS011;11089;49.852;19.700;2023-04-01T05:15:39;3.15;;;1.50;;
21848;SDS011;11089;49.852;19.700;2023-04-01T05:18:40;4.85;;;1.83;;
21848;SDS011;11089;49.852;19.700;2023-04-01T05:21:41;3.22;;;1.83;;
21848;SDS011;11089;49.852;19.700;2023-04-01T05:24:42;3.88;;;1.88;;
21848;SDS011;11089;49.852;19.700;2023-04-01T05:27:43;1.67;;;1.30;;
21848;SDS011;11089;49.852;19.700;2023-04-01T05:30:44;3.65;;;1.70;;
21848;SDS011;11089;49.852;19.700;2023-04-01T05:33:46;3.03;;;1.30;;
21848;SDS011;11089;49.852;19.700;2023-04-01T05:36:47;4.03;;;1.83;;
21848;SDS011;11089;49.852;19.700;2023-04-01T05:39:48;3.47;;;2.10;;
21848;SDS011;11089;49.852;19.700;2023-04-01T05:42:49;3.30;;;1.98;;
21848;SDS011;11089;49.852;19.700;2023-04-01T05:45:49;3.47;;;2.28;;
21848;SDS011;11089;49.852;19.700;2023-04-01T05:48:50;4.85;;;2.20;;
21848;SDS011;11089;49.852;19.700;2023-04-01T05:51:51;2.33;;;1.75;;
21848;SDS011;11089;49.852;19.700;2023-04-01T05:54:52;3.08;;;2.00;;
21848;SDS011;11089;49.852;19.700;2023-04-01T05:57:53;3.25;;;1.65;;
21848;SDS011;11089;49.852;19.700;2023-04-01T06:00:59;3.70;;;1.83;;
21848;SDS011;11089;49.852;19.700;2023-04-01T06:04:05;2.40;;;1.52;;
21848;SDS011;11089;49.852;19.700;2023-04-01T06:07:15;3.42;;;1.80;;
21848;SDS011;11089;49.852;19.700;2023-04-01T06:10:18;3.00;;;1.88;;
21848;SDS011;11089;49.852;19.700;2023-04-01T06:16:25;3.33;;;1.90;;
21848;SDS011;11089;49.852;19.700;2023-04-01T06:23:15;5.07;;;2.15;;
21848;SDS011;11089;49.852;19.700;2023-04-01T06:26:44;4.60;;;2.25;;
21848;SDS011;11089;49.852;19.700;2023-04-01T06:30:25;4.95;;;1.90;;
21848;SDS011;11089;49.852;19.700;2023-04-01T06:43:41;6.35;;;2.70;;
21848;SDS011;11089;49.852;19.700;2023-04-01T06:56:46;5.28;;;2.63;;
21848;SDS011;11089;49.852;19.700;2023-04-01T06:59:51;3.63;;;2.03;;
21848;SDS011;11089;49.852;19.700;2023-04-01T07:06:13;4.53;;;2.13;;
21848;SDS011;11089;49.852;19.700;2023-04-01T07:09:22;3.55;;;2.00;;
21848;SDS011;11089;49.852;19.700;2023-04-01T07:12:32;3.95;;;1.77;;
21848;SDS011;11089;49.852;19.700;2023-04-01T07:15:49;5.00;;;2.30;;
21848;SDS011;11089;49.852;19.700;2023-04-01T07:19:16;3.63;;;1.73;;
21848;SDS011;11089;49.852;19.700;2023-04-01T07:25:38;3.10;;;1.85;;
21848;SDS011;11089;49.852;19.700;2023-04-01T07:28:43;4.35;;;1.98;;
21848;SDS011;11089;49.852;19.700;2023-04-01T07:38:25;3.97;;;2.83;;
21848;SDS011;11089;49.852;19.700;2023-04-01T07:51:31;3.63;;;1.73;;
21848;SDS011;11089;49.852;19.700;2023-04-01T07:54:49;3.15;;;1.88;;
21848;SDS011;11089;49.852;19.700;2023-04-01T08:04:46;1.92;;;1.20;;
21848;SDS011;11089;49.852;19.700;2023-04-01T08:21:43;3.20;;;1.60;;
21848;SDS011;11089;49.852;19.700;2023-04-01T08:24:51;3.95;;;1.65;;
21848;SDS011;11089;49.852;19.700;2023-04-01T08:27:55;2.00;;;1.35;;
21848;SDS011;11089;49.852;19.700;2023-04-01T08:34:12;2.92;;;1.80;;
21848;SDS011;11089;49.852;19.700;2023-04-01T08:37:22;2.20;;;1.23;;
21848;SDS011;11089;49.852;19.700;2023-04-01T08:50:49;1.75;;;1.40;;
21848;SDS011;11089;49.852;19.700;2023-04-01T08:58:11;2.65;;;1.58;;
21848;SDS011;11089;49.852;19.700;2023-04-01T09:04:39;1.85;;;1.50;;
21848;SDS011;11089;49.852;19.700;2023-04-01T09:07:51;2.05;;;1.50;;
21848;SDS011;11089;49.852;19.700;2023-04-01T09:27:28;2.45;;;1.40;;
21848;SDS011;11089;49.852;19.700;2023-04-01T09:50:27;3.10;;;1.55;;
21848;SDS011;11089;49.852;19.700;2023-04-01T09:53:41;3.20;;;2.10;;
21848;SDS011;11089;49.852;19.700;2023-04-01T10:03:32;4.13;;;1.65;;
21848;SDS011;11089;49.852;19.700;2023-04-01T10:20:36;5.22;;;2.50;;
21848;SDS011;11089;49.852;19.700;2023-04-01T10:51:10;3.67;;;2.40;;
21848;SDS011;11089;49.852;19.700;2023-04-01T11:00:50;4.10;;;2.25;;
21848;SDS011;11089;49.852;19.700;2023-04-01T11:17:30;2.00;;;1.27;;
21848;SDS011;11089;49.852;19.700;2023-04-01T11:24:17;1.30;;;1.00;;
21848;SDS011;11089;49.852;19.700;2023-04-01T11:27:28;1.48;;;1.10;;
21848;SDS011;11089;49.852;19.700;2023-04-01T11:40:45;2.00;;;1.55;;
21848;SDS011;11089;49.852;19.700;2023-04-01T12:36:49;2.78;;;2.03;;
21848;SDS011;11089;49.852;19.700;2023-04-01T12:53:19;3.55;;;1.40;;
21848;SDS011;11089;49.852;19.700;2023-04-01T12:56:29;2.78;;;1.80;;
21848;SDS011;11089;49.852;19.700;2023-04-01T13:19:57;3.58;;;2.00;;
21848;SDS011;11089;49.852;19.700;2023-04-01T13:26:40;4.70;;;3.08;;
21848;SDS011;11089;49.852;19.700;2023-04-01T13:39:53;4.68;;;2.80;;
21848;SDS011;11089;49.852;19.700;2023-04-01T13:43:09;7.68;;;5.00;;
21848;SDS011;11089;49.852;19.700;2023-04-01T13:46:23;15.88;;;7.60;;
21848;SDS011;11089;49.852;19.700;2023-04-01T13:50:03;21.85;;;11.50;;
21848;SDS011;11089;49.852;19.700;2023-04-01T13:53:17;5.80;;;3.78;;
21848;SDS011;11089;49.852;19.700;2023-04-01T14:02:51;7.70;;;4.97;;
21848;SDS011;11089;49.852;19.700;2023-04-01T14:06:02;4.82;;;2.95;;
21848;SDS011;11089;49.852;19.700;2023-04-01T14:35:51;10.88;;;5.68;;
21848;SDS011;11089;49.852;19.700;2023-04-01T14:48:57;24.65;;;10.55;;
21848;SDS011;11089;49.852;19.700;2023-04-01T14:52:25;18.13;;;8.73;;
21848;SDS011;11089;49.852;19.700;2023-04-01T14:58:46;26.55;;;13.18;;
21848;SDS011;11089;49.852;19.700;2023-04-01T15:05:27;18.73;;;9.45;;
21848;SDS011;11089;49.852;19.700;2023-04-01T15:08:33;17.88;;;10.13;;
21848;SDS011;11089;49.852;19.700;2023-04-01T15:32:02;6.13;;;2.95;;
21848;SDS011;11089;49.852;19.700;2023-04-01T15:41:23;6.03;;;3.35;;
21848;SDS011;11089;49.852;19.700;2023-04-01T15:47:53;8.88;;;3.70;;
21848;SDS011;11089;49.852;19.700;2023-04-01T16:18:30;4.35;;;2.95;;
21848;SDS011;11089;49.852;19.700;2023-04-01T16:21:53;6.70;;;3.30;;
21848;SDS011;11089;49.852;19.700;2023-04-01T16:31:55;11.68;;;6.05;;
21848;SDS011;11089;49.852;19.700;2023-04-01T16:38:37;8.90;;;4.65;;
21848;SDS011;11089;49.852;19.700;2023-04-01T16:41:57;9.82;;;4.95;;
21848;SDS011;11089;49.852;19.700;2023-04-01T16:55:16;13.77;;;5.97;;
21848;SDS011;11089;49.852;19.700;2023-04-01T16:58:26;10.40;;;5.93;;
21848;SDS011;11089;49.852;19.700;2023-04-01T17:01:44;25.17;;;13.52;;
21848;SDS011;11089;49.852;19.700;2023-04-01T17:05:17;14.68;;;9.43;;
21848;SDS011;11089;49.852;19.700;2023-04-01T17:18:39;12.77;;;8.35;;
21848;SDS011;11089;49.852;19.700;2023-04-01T17:31:57;8.98;;;6.38;;
21848;SDS011;11089;49.852;19.700;2023-04-01T17:35:13;6.40;;;4.22;;
21848;SDS011;11089;49.852;19.700;2023-04-01T17:39:14;7.45;;;4.43;;
21848;SDS011;11089;49.852;19.700;2023-04-01T18:21:48;10.27;;;5.45;;
21848;SDS011;11089;49.852;19.700;2023-04-01T18:28:47;8.57;;;4.47;;
21848;SDS011;11089;49.852;19.700;2023-04-01T18:32:01;6.50;;;4.20;;
21848;SDS011;11089;49.852;19.700;2023-04-01T18:35:52;8.73;;;4.60;;
21848;SDS011;11089;49.852;19.700;2023-04-01T18:39:18;8.23;;;5.05;;
21848;SDS011;11089;49.852;19.700;2023-04-01T18:45:54;9.25;;;5.63;;
21848;SDS011;11089;49.852;19.700;2023-04-01T18:49:06;10.20;;;6.70;;
21848;SDS011;11089;49.852;19.700;2023-04-01T19:08:38;19.60;;;9.32;;
21848;SDS011;11089;49.852;19.700;2023-04-01T19:11:52;18.65;;;11.20;;
21848;SDS011;11089;49.852;19.700;2023-04-01T19:22:12;16.38;;;10.00;;
21848;SDS011;11089;49.852;19.700;2023-04-01T19:28:43;15.35;;;9.52;;
21848;SDS011;11089;49.852;19.700;2023-04-01T19:32:14;16.02;;;9.05;;
21848;SDS011;11089;49.852;19.700;2023-04-01T19:38:40;16.50;;;9.23;;
21848;SDS011;11089;49.852;19.700;2023-04-01T19:42:11;15.75;;;9.77;;
21848;SDS011;11089;49.852;19.700;2023-04-01T19:49:20;15.57;;;9.77;;
21848;SDS011;11089;49.852;19.700;2023-04-01T19:52:31;18.23;;;11.07;;
21848;SDS011;11089;49.852;19.700;2023-04-01T19:55:38;16.40;;;9.80;;
21848;SDS011;11089;49.852;19.700;2023-04-01T19:59:16;20.75;;;12.15;;
21848;SDS011;11089;49.852;19.700;2023-04-01T20:06:04;15.90;;;10.00;;
21848;SDS011;11089;49.852;19.700;2023-04-01T20:15:59;18.55;;;11.23;;
21848;SDS011;11089;49.852;19.700;2023-04-01T20:19:03;21.27;;;13.10;;
21848;SDS011;11089;49.852;19.700;2023-04-01T20:22:08;22.50;;;12.65;;
21848;SDS011;11089;49.852;19.700;2023-04-01T20:32:23;23.83;;;12.52;;
21848;SDS011;11089;49.852;19.700;2023-04-01T20:48:37;20.83;;;12.00;;
21848;SDS011;11089;49.852;19.700;2023-04-01T21:08:49;30.63;;;17.10;;
21848;SDS011;11089;49.852;19.700;2023-04-01T21:32:11;27.45;;;14.75;;
21848;SDS011;11089;49.852;19.700;2023-04-01T21:55:44;23.30;;;12.95;;
21848;SDS011;11089;49.852;19.700;2023-04-01T22:09:10;16.05;;;9.63;;
21848;SDS011;11089;49.852;19.700;2023-04-01T22:22:15;20.52;;;11.82;;
21848;SDS011;11089;49.852;19.700;2023-04-01T22:25:38;17.65;;;10.30;;
21848;SDS011;11089;49.852;19.700;2023-04-01T22:29:11;20.25;;;11.57;;
21848;SDS011;11089;49.852;19.700;2023-04-01T22:32:16;18.17;;;10.25;;
21848;SDS011;11089;49.852;19.700;2023-04-01T22:38:55;20.80;;;10.63;;
21848;SDS011;11089;49.852;19.700;2023-04-01T22:51:17;21.05;;;11.38;;
21848;SDS011;11089;49.852;19.700;2023-04-01T22:57:50;20.70;;;12.10;;
21848;SDS011;11089;49.852;19.700;2023-04-01T23:00:58;20.90;;;11.48;;
21848;SDS011;11089;49.852;19.700;2023-04-01T23:04:04;20.70;;;10.77;;
21848;SDS011;11089;49.852;19.700;2023-04-01T23:07:41;24.85;;;10.98;;
21848;SDS011;11089;49.852;19.700;2023-04-01T23:27:04;21.52;;;11.88;;
21848;SDS011;11089;49.852;19.700;2023-04-01T23:33:39;22.52;;;11.82;;
21848;SDS011;11089;49.852;19.700;2023-04-01T23:36:41;24.40;;;12.55;;
21848;SDS011;11089;49.852;19.700;2023-04-01T23:39:45;22.83;;;12.50;;
21848;SDS011;11089;49.852;19.700;2023-04-01T23:42:48;22.67;;;12.32;;
21848;SDS011;11089;49.852;19.700;2023-04-01T23:45:49;24.75;;;12.98;;
21848;SDS011;11089;49.852;19.700;2023-04-01T23:48:50;26.05;;;13.77;;
21848;SDS011;11089;49.852;19.700;2023-04-01T23:51:56;25.27;;;12.77;;
21848;SDS011;11089;49.852;19.700;2023-04-01T23:55:25;23.73;;;12.48;;
